• Join FlightAware (Why Join?)
  • Login
  • US Flag 
07:32AM EDT


 

Airport Tracker/Info


-or-


 

Live Flight TrackerFlight Track Log ✈ VH-CZI ✈ 22-May-2013 ✈ YPJT / JAD - YPJT / JAD

Flight Track Log - Related Links

Times and Time Zones

All times are in EDT time to prevent confusion due to time zone crossing. See the VH-CZI flight status page for this flight to view local times or setup timezone preferences in your user account.

Time Position Orientation Groundspeed Altitude Reporting Facility
EDT Latitude Longitude Course Direction KTS MPH feet Rate Location/Type
03:04AM -32.0907 115.8901 24° Northeast 87 100 600  Level Aus ATC (RADAR)
03:04AM -32.0775 115.8969 24° Northeast 95 109 1,100 900 Climbing Aus ATC (RADAR)
03:05AM -32.0653 115.8741 302° West 99 114 1,900 840 Climbing Aus ATC (RADAR)
03:05AM -32.0643 115.8599 275° West 101 116 2,200 900 Climbing Aus ATC (RADAR)
03:06AM -32.0625 115.8394 276° West 107 123 2,800 900 Climbing Aus ATC (RADAR)
03:07AM -32.0510 115.8022 290° West 113 130 3,700 720 Climbing Aus ATC (RADAR)
03:08AM -32.0468 115.7874 288° West 114 131 3,900 360 Climbing Aus ATC (RADAR)
03:08AM -32.0467 115.7634 270° West 123 142 4,100 120 Climbing Aus ATC (RADAR)
03:09AM -32.0470 115.7303 269° West 131 151 4,100 -120 Level Aus ATC (RADAR)
03:09AM -32.0584 115.7115 235° Southwest 131 151 4,000  Descending Aus ATC (RADAR)
03:10AM -32.0867 115.7114 180° South 121 139 4,100 120 Climbing Aus ATC (RADAR)
03:11AM -32.1009 115.7090 188° South 123 142 4,200 60 Climbing Aus ATC (RADAR)
03:11AM -32.1157 115.7202 147° Southeast 114 131 4,200  Level Aus ATC (RADAR)
03:12AM -32.1260 115.7497 112° Southeast 114 131 4,200 -120 Level Aus ATC (RADAR)
03:13AM -32.1334 115.7633 123° Southeast 115 132 4,100 -120 Descending Aus ATC (RADAR)
03:13AM -32.1483 115.7788 139° Southeast 119 137 4,100  Level Aus ATC (RADAR)
03:14AM -32.1678 115.7968 142° Southeast 119 137 4,100 60 Level Aus ATC (RADAR)
03:14AM -32.1730 115.8166 107° East 115 132 4,200 -300 Climbing Aus ATC (RADAR)
03:15AM -32.1706 115.8487 85° East 117 135 3,700 -600 Descending Aus ATC (RADAR)
03:16AM -32.1699 115.8649 87° East 117 135 3,500 -600 Descending Aus ATC (RADAR)
03:16AM -32.1695 115.8880 89° East 118 136 3,100 -360 Descending Aus ATC (RADAR)
03:17AM -32.1426 115.9053 29° Northeast 129 148 3,000 -120 Descending Aus ATC (RADAR)
03:18AM -32.1281 115.9103 16° North 130 150 3,000  Level Aus ATC (RADAR)
03:18AM -32.1084 115.9154 12° North 124 143 3,000 -240 Level Aus ATC (RADAR)
03:19AM -32.0806 115.9236 14° North 121 139 2,700 -420 Descending Aus ATC (RADAR)
03:20AM -32.0626 115.9296 16° North 115 132 2,400 -720 Descending Aus ATC (RADAR)
03:20AM -32.0389 115.9357 12° North 117 135 1,800 -720 Descending Aus ATC (RADAR)
03:21AM -32.0266 115.9400 16° North 112 129 1,600 -600 Descending Aus ATC (RADAR)
03:21AM -32.0066 115.9464 15° North 112 129 1,200 -600 Descending Aus ATC (RADAR)
03:22AM -31.9824 115.9530 13° North 119 137 800 -600 Descending Aus ATC (RADAR)
03:23AM -31.9697 115.9562 12° North 113 130 500 -120 Descending Aus ATC (RADAR)
03:23AM -31.9597 115.9690 48° Northeast 97 112 700 660 Climbing Aus ATC (RADAR)
03:24AM -31.9637 115.9942 101° East 100 115 1,400 900 Climbing Aus ATC (RADAR)
03:25AM -31.9658 116.0139 97° East 99 114 1,900 780 Climbing Aus ATC (RADAR)
03:25AM -31.9710 116.0379 104° East 99 114 2,500 840 Climbing Aus ATC (RADAR)
03:26AM -31.9859 116.0386 178° South 107 123 3,000 540 Climbing Aus ATC (RADAR)
03:26AM -32.0042 116.0355 188° South 118 136 3,100 120 Climbing Aus ATC (RADAR)
03:27AM -32.0362 116.0221 200° South 125 144 3,200 60 Climbing Aus ATC (RADAR)
03:28AM -32.0497 116.0152 203° Southwest 126 145 3,200 -240 Level Aus ATC (RADAR)
03:28AM -32.0685 116.0045 206° Southwest 127 146 3,000 -300 Descending Aus ATC (RADAR)
03:29AM -32.0926 115.9923 203° Southwest 123 142 2,800 -300 Descending Aus ATC (RADAR)
03:30AM -32.0935 115.9642 268° West 126 145 2,600 -120 Descending Aus ATC (RADAR)
03:31AM -32.0851 115.9263 285° West 131 151 2,700 60 Climbing Aus ATC (RADAR)
03:31AM -32.0749 115.9236 347° North 136 157 2,700 -240 Level Aus ATC (RADAR)
03:31AM -32.0541 115.9298 14° North 131 151 2,500 -600 Descending Aus ATC (RADAR)
03:32AM -32.0237 115.9399 16° North 122 140 1,800 -780 Descending Aus ATC (RADAR)
03:33AM -32.0077 115.9442 13° North 118 136 1,400 -780 Descending Aus ATC (RADAR)
03:34AM -31.9882 115.9486 11° North 108 124 900 -600 Descending Aus ATC (RADAR)
03:34AM -31.9712 115.9530 13° North 105 121 700 60 Descending Aus ATC (RADAR)
03:35AM -31.9582 115.9462 336° Northwest 97 112 1,000 600 Climbing Aus ATC (RADAR)
03:36AM -31.9592 115.9148 268° West 114 131 1,600 720 Climbing Aus ATC (RADAR)
03:36AM -31.9593 115.9015 270° West 119 137 1,900 840 Climbing Aus ATC (RADAR)
03:36AM -31.9609 115.8785 265° West 121 139 2,400 600 Climbing Aus ATC (RADAR)
03:38AM -31.9648 115.8277 265° West 126 145 3,100 240 Climbing Aus ATC (RADAR)
03:39AM -31.9671 115.7906 266° West 132 152 2,900 -600 Descending Aus ATC (RADAR)
03:39AM -31.9707 115.7568 263° West 133 153 2,200 -660 Descending Aus ATC (RADAR)
03:40AM -31.9749 115.7279 260° West 129 148 2,000 -120 Descending Aus ATC (RADAR)
03:41AM -31.9800 115.6928 260° West 128 147 2,100  Climbing Aus ATC (RADAR)
03:41AM -31.9832 115.6751 258° West 129 148 2,000 120 Descending Aus ATC (RADAR)
03:42AM -31.9909 115.6367 257° West 133 153 2,300 240 Climbing Aus ATC (RADAR)
03:43AM -31.9962 115.6099 257° West 140 161 2,400 300 Climbing Aus ATC (RADAR)
03:43AM -31.9980 115.5909 264° West 136 157 2,600 600 Climbing Aus ATC (RADAR)
03:44AM -32.0023 115.5663 258° West 132 152 3,000 240 Climbing Aus ATC (RADAR)
03:45AM -32.0074 115.5236 262° West 144 166 3,000  Level Aus ATC (RADAR)
03:45AM -32.0104 115.4963 263° West 140 161 3,000 60 Level Aus ATC (RADAR)
03:46AM -32.0187 115.4597 255° West 138 159 3,100 60 Climbing Aus ATC (RADAR)
03:47AM -32.0379 115.4646 168° South 129 148 3,100 60 Level Aus ATC (RADAR)
03:47AM -32.0189 115.4868 45° Northeast 115 132 3,200 60 Climbing Aus ATC (RADAR)
03:48AM -32.0117 115.4996 57° Northeast 116 133 3,200 -240 Level Aus ATC (RADAR)
03:49AM -32.0064 115.5252 76° East 118 136 3,000 -180 Descending Aus ATC (RADAR)
03:49AM -32.0042 115.5521 85° East 121 139 3,000  Level Aus ATC (RADAR)
03:50AM -32.0226 115.5569 168° South 130 150 3,000 -300 Level Aus ATC (RADAR)
03:51AM -32.0287 115.5182 260° West 130 150 2,600 -480 Descending Aus ATC (RADAR)
03:51AM -32.0309 115.5077 256° West 128 147 2,500 -480 Descending Aus ATC (RADAR)
03:52AM -32.0371 115.4833 253° West 129 148 2,200 -300 Descending Aus ATC (RADAR)
03:53AM -32.0099 115.4855 North 124 143 2,000 -120 Descending Aus ATC (RADAR)
03:53AM -32.0135 115.5017 105° East 118 136 2,100 60 Climbing Aus ATC (RADAR)
03:54AM -32.0097 115.5240 79° East 116 133 2,100  Level Aus ATC (RADAR)
03:54AM -32.0023 115.5492 71° East 118 136 2,100  Level Aus ATC (RADAR)
03:55AM -32.0111 115.5663 121° Southeast 115 132 2,100 60 Level Aus ATC (RADAR)
03:56AM -32.0227 115.5426 240° Southwest 118 136 2,200 60 Climbing Aus ATC (RADAR)
03:56AM -32.0240 115.5260 265° West 118 136 2,200  Level Aus ATC (RADAR)
03:57AM -32.0289 115.5028 256° West 121 139 2,200  Level Aus ATC (RADAR)
03:58AM -32.0102 115.4883 327° Northwest 117 135 2,200 -180 Level Aus ATC (RADAR)
03:58AM -32.0070 115.5043 77° East 117 135 2,000 -120 Descending Aus ATC (RADAR)
03:59AM -32.0096 115.5293 97° East 114 131 2,100 60 Climbing Aus ATC (RADAR)
03:59AM -32.0050 115.5527 77° East 112 129 2,100 60 Level Aus ATC (RADAR)
04:00AM -32.0248 115.5495 188° South 127 146 2,200 60 Climbing Aus ATC (RADAR)
04:01AM -32.0316 115.5198 255° West 124 143 2,200 -120 Level Aus ATC (RADAR)
04:01AM -32.0361 115.5033 252° West 123 142 2,100  Descending Aus ATC (RADAR)
04:02AM -32.0358 115.4808 271° West 118 136 2,200  Climbing Aus ATC (RADAR)
04:03AM -32.0151 115.5111 51° Northeast 113 130 2,200 -60 Level Aus ATC (RADAR)
04:03AM -32.0116 115.5264 75° East 112 129 2,100 -120 Descending Aus ATC (RADAR)
04:04AM -32.0034 115.5469 65° Northeast 115 132 2,100 -360 Level Aus ATC (RADAR)
04:05AM -32.0014 115.5808 86° East 121 139 1,600 -540 Descending Aus ATC (RADAR)
04:05AM -31.9958 115.6031 74° East 121 139 1,400 -300 Descending Aus ATC (RADAR)
04:06AM -31.9934 115.6334 85° East 120 138 1,200 -120 Descending Aus ATC (RADAR)
04:06AM -32.0068 115.6375 166° South 123 142 1,300 60 Climbing Aus ATC (RADAR)
04:07AM -32.0053 115.6155 275° West 123 142 1,300 -240 Level Aus ATC (RADAR)
04:08AM -32.0074 115.5731 267° West 118 136 900 -180 Descending Aus ATC (RADAR)
04:09AM -32.0056 115.5575 278° West 109 125 1,100 480 Climbing Aus ATC (RADAR)
04:09AM -32.0220 115.5490 204° Southwest 119 137 1,400 780 Climbing Aus ATC (RADAR)
04:10AM -32.0461 115.5487 181° South 118 136 2,200 420 Climbing Aus ATC (RADAR)
04:10AM -32.0660 115.5475 183° South 123 142 2,000 -120 Descending Aus ATC (RADAR)
04:11AM -32.0564 115.5189 291° West 119 137 2,100 60 Climbing Aus ATC (RADAR)
04:12AM -32.0417 115.5185 358° North 124 143 2,100 60 Level Aus ATC (RADAR)
04:13AM -32.0164 115.5314 23° Northeast 122 140 2,200 60 Climbing Aus ATC (RADAR)
04:13AM -32.0052 115.5436 43° Northeast 114 131 2,200  Level Aus ATC (RADAR)
04:13AM -32.0120 115.5584 118° Southeast 112 129 2,200  Level Aus ATC (RADAR)
04:14AM -32.0230 115.5775 124° Southeast 117 135 2,200  Level Aus ATC (RADAR)
04:15AM -32.0347 115.6025 119° Southeast 113 130 2,200  Level Aus ATC (RADAR)
04:15AM -32.0446 115.6213 122° Southeast 113 130 2,200 -120 Level Aus ATC (RADAR)
04:16AM -32.0575 115.6500 118° Southeast 116 133 2,100 -120 Descending Aus ATC (RADAR)
04:17AM -32.0635 115.6646 116° Southeast 117 135 2,100  Level Aus ATC (RADAR)
04:17AM -32.0747 115.6873 120° Southeast 117 135 2,100 -240 Level Aus ATC (RADAR)
04:18AM -32.0845 115.7242 107° East 115 132 1,700 -360 Descending Aus ATC (RADAR)
04:19AM -32.0890 115.7396 109° East 116 133 1,600  Descending Aus ATC (RADAR)
04:19AM -32.0953 115.7606 109° East 111 128 1,700 60 Climbing Aus ATC (RADAR)
04:20AM -32.0976 115.7921 95° East 113 130 1,700  Level Aus ATC (RADAR)
04:21AM -32.0958 115.8142 85° East 115 132 1,700 -420 Level Aus ATC (RADAR)
04:21AM -32.0928 115.8431 83° East 116 133 1,200 -480 Descending Aus ATC (RADAR)
04:22AM -32.0873 115.8582 67° East 119 137 1,200  Level Aus ATC (RADAR)